Time;durP1;ratioP1;P1;durP2;ratioP2;P2;SDS_P1;SDS_P2;PMS_P1;PMS_P2;Temp;Humidity;BMP_temperature;BMP_pressure;BME280_temperature;BME280_humidity;BME280_pressure;Samples;Min_cycle;Max_cycle;Signal;HPM_P1;HPM_P2
2023/03/20 00:02:22;;;;;;;411.67;259.17;;;9.40;99.90;;;9.48;100.00;100720.91;5021420;28;20224;-75
2023/03/20 00:04:49;;;;;;;414.13;255.35;;;9.40;99.90;;;9.49;100.00;100719.16;5025212;28;20242;-75
2023/03/20 00:07:16;;;;;;;414.20;258.73;;;9.40;99.90;;;9.41;100.00;100732.22;5024065;28;20246;-75
2023/03/20 00:09:43;;;;;;;408.08;254.48;;;9.30;99.90;;;9.29;100.00;100739.91;5024807;28;20305;-75
2023/03/20 00:12:17;;;;;;;403.20;249.90;;;9.30;99.90;;;9.22;100.00;100748.56;5026276;28;20613;-75
2023/03/20 00:14:45;;;;;;;405.60;250.40;;;9.20;99.90;;;9.19;100.00;100753.78;5021342;28;20247;-75
2023/03/20 00:17:19;;;;;;;406.65;251.68;;;9.10;99.90;;;9.19;100.00;100753.78;5027765;28;20234;-75
2023/03/20 00:19:46;;;;;;;409.55;249.88;;;9.10;99.90;;;9.14;100.00;100760.72;5027840;28;20265;-75
2023/03/20 00:22:13;;;;;;;410.40;256.33;;;9.10;99.90;;;9.16;100.00;100764.28;5025809;28;20251;-74
2023/03/20 00:24:40;;;;;;;407.08;249.15;;;9.10;99.90;;;9.17;100.00;100772.25;5026732;28;20254;-74
2023/03/20 00:27:12;;;;;;;405.02;253.52;;;9.10;99.90;;;9.15;100.00;100773.97;5041600;28;20243;-75
2023/03/20 00:29:40;;;;;;;405.73;249.45;;;9.10;99.90;;;9.15;100.00;100771.31;5023739;28;20258;-75
2023/03/20 00:32:14;;;;;;;417.63;255.85;;;9.10;99.90;;;9.16;100.00;100774.84;5019096;28;20238;-74
2023/03/20 00:34:41;;;;;;;410.00;246.40;;;9.10;99.90;;;9.13;100.00;100773.03;5028036;28;20229;-75
2023/03/20 00:37:12;;;;;;;406.00;249.55;;;9.10;99.90;;;9.08;100.00;100777.28;5027146;28;20277;-74
2023/03/20 00:39:41;;;;;;;412.00;262.02;;;9.00;99.90;;;9.06;100.00;100776.38;5026084;28;20755;-75
2023/03/20 00:42:20;;;;;;;408.27;244.35;;;9.00;99.90;;;9.06;100.00;100776.38;5024432;28;20246;-75
2023/03/20 00:44:52;;;;;;;416.15;263.95;;;9.00;99.90;;;9.09;100.00;100783.47;5023668;28;20239;-75
2023/03/20 00:47:23;;;;;;;408.88;254.70;;;9.00;99.90;;;9.05;100.00;100785.16;5014010;28;20746;-75
2023/03/20 00:49:53;;;;;;;412.55;256.75;;;9.00;99.90;;;9.01;100.00;100785.06;5032480;28;20717;-74
2023/03/20 00:52:21;;;;;;;408.70;256.13;;;8.90;99.90;;;8.99;100.00;100777.09;5024134;28;20234;-75
2023/03/20 00:54:48;;;;;;;409.88;261.50;;;8.90;99.90;;;8.99;100.00;100785.03;5022283;28;20239;-74
2023/03/20 00:57:35;;;;;;;412.83;260.52;;;8.90;99.90;;;9.01;100.00;100790.31;5021458;28;20255;-75
2023/03/20 01:00:08;;;;;;;407.08;253.70;;;7.10;99.90;;;9.03;100.00;100789.50;5022842;28;20238;-75
2023/03/20 01:02:35;;;;;;;407.27;254.45;;;9.00;99.90;;;9.03;100.00;100789.50;5024983;28;20762;-74
2023/03/20 01:07:45;;;;;;;473.42;288.90;;;9.00;99.90;;;9.00;100.00;100792.06;5238528;23;20322;-73
2023/03/20 01:10:13;;;;;;;407.00;239.40;;;9.00;99.90;;;9.08;100.00;100800.16;4987922;28;20233;-74
2023/03/20 01:12:42;;;;;;;407.40;243.60;;;9.00;99.90;;;9.04;100.00;100796.56;4965743;28;20315;-75
2023/03/20 01:15:22;;;;;;;408.90;247.02;;;9.00;99.90;;;9.02;100.00;100802.66;4985491;28;20237;-74
2023/03/20 01:17:49;;;;;;;404.10;243.40;;;8.90;99.90;;;9.04;100.00;100799.19;4984162;28;20318;-75
2023/03/20 01:20:22;;;;;;;406.48;241.55;;;8.90;99.90;;;9.00;100.00;100797.34;4985302;28;20236;-75
2023/03/20 01:22:49;;;;;;;402.13;243.68;;;8.90;99.90;;;8.95;100.00;100805.16;4984331;28;20244;-75
2023/03/20 01:25:17;;;;;;;400.30;237.07;;;8.80;99.90;;;8.94;100.00;100795.47;4983085;28;20236;-74
2023/03/20 01:27:49;;;;;;;402.25;238.45;;;8.90;99.90;;;8.98;100.00;100805.22;4984257;28;20228;-75
2023/03/20 01:30:30;;;;;;;403.58;236.65;;;8.90;99.90;;;9.05;100.00;100808.00;4985092;28;20235;-75
2023/03/20 01:33:00;;;;;;;400.20;233.32;;;8.90;99.90;;;9.09;100.00;100804.56;4987718;28;20266;-75
2023/03/20 01:35:28;;;;;;;396.42;233.57;;;9.00;99.90;;;9.07;100.00;100812.44;4984553;28;20247;-75
2023/03/20 01:37:56;;;;;;;403.48;240.05;;;9.00;99.90;;;9.06;100.00;100809.78;4982044;28;20237;-75
2023/03/20 01:40:38;;;;;;;404.20;236.38;;;8.90;99.90;;;9.04;100.00;100808.84;4977505;28;20233;-75
2023/03/20 01:43:15;;;;;;;405.90;239.43;;;9.00;99.90;;;9.08;100.00;100819.50;4990265;28;20232;-74
2023/03/20 01:46:16;;;;;;;401.67;232.73;;;9.00;99.90;;;9.09;100.00;100820.41;4987086;28;20593;-75
2023/03/20 01:48:49;;;;;;;397.95;225.85;;;9.00;99.90;;;9.11;100.00;100824.88;4981264;28;20312;-75
2023/03/20 01:51:22;;;;;;;401.52;236.88;;;9.00;99.90;;;9.11;100.00;100827.53;4977484;28;20241;-74
2023/03/20 01:53:56;;;;;;;401.73;238.95;;;9.00;99.90;;;9.08;100.00;100832.69;4984818;28;20252;-75
2023/03/20 01:56:25;;;;;;;402.25;242.80;;;8.90;99.90;;;9.02;100.00;100839.59;5001113;28;20232;-75
2023/03/20 01:59:02;;;;;;;404.25;240.85;;;8.90;99.90;;;8.96;100.00;100851.78;4985383;28;20268;-75
2023/03/20 02:01:29;;;;;;;404.90;248.75;;;8.90;99.90;;;8.97;100.00;100850.94;4982086;28;20259;-74
2023/03/20 02:03:57;;;;;;;405.58;241.52;;;8.90;99.90;;;9.03;100.00;100854.56;4989717;28;20242;-75
2023/03/20 02:06:25;;;;;;;406.50;246.85;;;8.90;99.90;;;9.02;100.00;100861.59;4989813;28;20405;-75
2023/03/20 02:08:53;;;;;;;409.75;246.40;;;8.90;99.90;;;8.98;100.00;100857.09;4990311;28;20712;-75
2023/03/20 02:11:23;;;;;;;409.45;248.43;;;8.80;99.90;;;8.98;100.00;100859.75;4986215;28;20335;-75
2023/03/20 02:13:57;;;;;;;403.73;248.02;;;8.90;99.90;;;9.07;100.00;100857.31;4990911;28;20307;-76
2023/03/20 02:16:24;;;;;;;413.38;255.05;;;8.90;99.90;;;9.09;100.00;100854.69;4987224;28;20310;-75
2023/03/20 02:18:55;;;;;;;405.48;248.25;;;9.00;99.90;;;9.01;100.00;100849.25;4989100;28;20240;-75
2023/03/20 02:21:52;;;;;;;411.33;247.98;;;8.90;99.90;;;9.06;100.00;100852.00;4986471;28;20236;-75
2023/03/20 02:24:50;;;;;;;410.92;248.88;;;9.00;99.90;;;9.05;100.00;100855.50;4989138;28;20244;-75
2023/03/20 02:28:13;;;;;;;408.85;241.57;;;9.00;99.90;;;9.04;100.00;100864.25;4988387;28;20243;-75
2023/03/20 02:31:10;;;;;;;406.50;240.75;;;8.90;99.90;;;9.03;100.00;100858.09;4981791;28;20758;-74
2023/03/20 02:34:06;;;;;;;466.38;277.90;;;9.00;99.90;;;9.07;100.00;100867.84;4984075;28;20236;-72
2023/03/20 02:37:19;;;;;;;412.35;246.68;;;8.90;99.90;;;9.03;100.00;100866.00;4984420;28;20264;-75
2023/03/20 02:42:51;;;;;;;405.65;240.02;;;12.40;99.90;;;8.97;100.00;100873.78;4929541;28;20223;-81
2023/03/20 02:45:48;;;;;;;402.42;234.80;;;8.90;99.90;;;9.04;100.00;100866.91;4928106;28;20242;-80
2023/03/20 02:48:58;;;;;;;399.23;230.15;;;8.90;99.90;;;9.04;100.00;100864.25;4962918;28;20234;-80
2023/03/20 02:51:41;;;;;;;405.15;237.18;;;8.90;99.90;;;8.97;100.00;100863.22;4932753;28;20234;-80
2023/03/20 02:54:26;;;;;;;394.67;233.27;;;8.90;99.90;;;8.97;100.00;100866.75;4932442;28;20285;-80
2023/03/20 02:57:15;;;;;;;392.63;234.07;;;8.80;99.90;;;9.05;100.00;100863.41;4932117;28;20590;-79
2023/03/20 02:59:47;;;;;;;395.02;230.77;;;8.90;99.90;;;9.13;100.00;100877.69;4933893;28;20242;-78
2023/03/20 03:02:52;;;;;;;394.52;241.60;;;9.00;99.90;;;9.21;100.00;100878.75;4934170;28;20277;-78
2023/03/20 03:05:26;;;;;;;402.38;236.32;;;9.10;99.90;;;9.30;100.00;100874.56;4934087;28;20317;-78
2023/03/20 03:07:57;;;;;;;395.73;231.82;;;9.10;99.90;;;9.34;100.00;100882.53;4947783;28;20239;-79
2023/03/20 03:10:33;;;;;;;412.42;247.55;;;9.30;99.90;;;9.38;100.00;100877.34;4931263;28;20241;-78
2023/03/20 03:13:03;;;;;;;400.50;234.90;;;9.20;99.90;;;9.46;100.00;100874.88;4930966;28;20329;-79
2023/03/20 03:15:41;;;;;;;404.40;248.18;;;9.30;99.90;;;9.47;100.00;100869.63;4946744;28;20262;-79
2023/03/20 03:18:18;;;;;;;399.38;242.82;;;9.40;99.90;;;9.48;100.00;100871.41;4930554;28;20233;-79
2023/03/20 03:20:49;;;;;;;402.63;245.80;;;9.40;99.90;;;9.48;100.00;100865.22;4931101;28;20269;-79
2023/03/20 03:23:29;;;;;;;397.70;243.52;;;9.30;99.90;;;9.47;100.00;100851.13;4931786;28;20281;-79
2023/03/20 03:26:02;;;;;;;427.27;256.50;;;9.40;99.90;;;9.51;100.00;100862.66;4930641;28;20242;-79
2023/03/20 03:28:48;;;;;;;404.88;250.02;;;9.40;99.90;;;9.53;100.00;100855.66;4929985;28;20254;-80
2023/03/20 03:31:17;;;;;;;399.35;238.90;;;9.40;99.90;;;9.55;100.00;100853.94;4930825;28;20238;-79
2023/03/20 03:33:49;;;;;;;403.15;243.35;;;9.50;99.90;;;9.52;100.00;100846.84;4928981;28;20737;-80
2023/03/20 03:36:50;;;;;;;391.35;238.52;;;9.40;99.90;;;9.51;100.00;100847.69;4945469;28;20683;-79
2023/03/20 03:39:44;;;;;;;398.25;229.70;;;9.40;99.90;;;9.53;100.00;100856.53;4930689;28;20312;-79
2023/03/20 03:42:32;;;;;;;397.67;230.85;;;9.40;99.90;;;9.47;100.00;100851.13;4932832;28;20238;-81
2023/03/20 03:45:08;;;;;;;406.90;241.35;;;9.40;99.90;;;9.49;100.00;100856.44;4930119;28;20329;-79
2023/03/20 03:47:56;;;;;;;399.98;237.35;;;9.40;99.90;;;9.49;100.00;100853.81;4927714;28;20230;-79
2023/03/20 03:50:29;;;;;;;406.27;240.68;;;9.40;99.90;;;9.48;100.00;100865.22;4928615;28;20266;-79
2023/03/20 03:53:02;;;;;;;399.88;241.77;;;9.40;99.90;;;9.46;100.00;100867.84;4930285;28;20230;-78
2023/03/20 03:55:38;;;;;;;394.48;242.25;;;9.40;99.90;;;9.42;100.00;100866.00;4932557;28;20222;-78
2023/03/20 03:58:15;;;;;;;399.83;239.85;;;9.40;99.90;;;9.41;100.00;100872.13;4931019;28;20253;-78
2023/03/20 04:00:45;;;;;;;399.48;239.05;;;9.30;99.90;;;9.51;100.00;100884.66;4945501;28;20250;-78
2023/03/20 04:03:12;;;;;;;398.17;239.20;;;9.40;99.90;;;9.53;100.00;100884.69;4932043;28;20679;-78
2023/03/20 04:05:43;;;;;;;396.65;237.82;;;9.40;99.90;;;9.50;100.00;100888.16;4947172;28;20238;-77
2023/03/20 04:08:10;;;;;;;409.52;246.68;;;9.40;99.90;;;9.48;100.00;100881.97;4946254;28;20301;-77
2023/03/20 04:10:37;;;;;;;407.10;250.10;;;9.40;99.90;;;9.46;100.00;100882.78;4931422;28;20254;-77
2023/03/20 04:13:04;;;;;;;392.27;239.25;;;9.40;99.90;;;9.47;100.00;100889.84;4934287;28;20297;-77
2023/03/20 04:15:31;;;;;;;393.33;241.07;;;9.40;99.90;;;9.45;100.00;100894.22;4933265;28;20635;-77
2023/03/20 04:17:59;;;;;;;398.42;247.32;;;9.30;99.90;;;9.50;100.00;100898.72;4931593;28;20238;-79
2023/03/20 04:20:26;;;;;;;400.83;242.65;;;9.40;99.90;;;9.50;100.00;100904.00;4932070;28;20262;-78
2023/03/20 04:22:53;;;;;;;389.88;241.43;;;9.40;99.90;;;9.52;100.00;100907.56;4929867;28;20246;-78
2023/03/20 04:25:28;;;;;;;396.63;238.35;;;9.40;99.90;;;9.58;100.00;100906.81;4931187;28;20237;-79
2023/03/20 04:27:55;;;;;;;403.15;246.57;;;9.50;99.90;;;9.58;100.00;100894.50;4915244;29;20241;-79
2023/03/20 04:30:22;;;;;;;397.83;246.90;;;9.50;99.90;;;9.53;100.00;100890.88;4932418;28;20258;-79
2023/03/20 04:32:49;;;;;;;395.92;246.93;;;9.40;99.90;;;9.50;100.00;100882.00;4931285;28;20305;-80
2023/03/20 04:35:16;;;;;;;397.23;244.68;;;9.40;99.90;;;9.50;100.00;100897.84;4933115;28;20236;-80
2023/03/20 04:37:43;;;;;;;404.77;251.60;;;9.40;99.90;;;9.46;100.00;100894.25;4928375;28;20261;-79
2023/03/20 04:40:12;;;;;;;400.00;246.23;;;9.40;99.90;;;9.45;100.00;100899.50;4931832;28;20317;-79
2023/03/20 04:42:39;;;;;;;398.85;250.15;;;9.40;99.90;;;9.48;100.00;100903.06;4929824;28;20341;-80
2023/03/20 04:45:07;;;;;;;409.15;253.77;;;9.40;99.90;;;9.50;100.00;100909.28;4930629;28;20297;-79
2023/03/20 04:47:34;;;;;;;400.98;253.05;;;9.40;99.90;;;9.52;100.00;100910.22;4928820;28;20248;-78
2023/03/20 04:50:01;;;;;;;403.52;254.15;;;9.40;99.90;;;9.52;100.00;100911.97;4931101;28;20293;-77
2023/03/20 04:52:28;;;;;;;403.17;248.35;;;9.40;99.90;;;9.52;100.00;100904.94;4932007;28;20261;-78
2023/03/20 04:54:55;;;;;;;404.55;251.90;;;9.40;99.90;;;9.54;100.00;100912.88;4931552;28;20234;-78
2023/03/20 04:57:23;;;;;;;404.52;256.55;;;9.40;99.90;;;9.51;100.00;100912.81;4927747;28;20316;-78
2023/03/20 04:59:50;;;;;;;417.75;267.02;;;9.40;99.90;;;9.49;100.00;100912.78;4931071;28;20234;-78
2023/03/20 05:02:17;;;;;;;399.73;250.00;;;9.40;99.90;;;9.52;100.00;100907.56;4931842;28;20277;-79
2023/03/20 05:04:44;;;;;;;414.75;256.05;;;9.40;99.90;;;9.52;100.00;100910.22;4925783;28;20246;-79
2023/03/20 05:07:11;;;;;;;400.20;245.30;;;9.40;99.90;;;9.54;100.00;100912.88;4943511;28;20357;-78
2023/03/20 05:09:38;;;;;;;407.85;258.25;;;9.50;99.90;;;9.55;100.00;100917.28;4944331;28;20305;-79
2023/03/20 05:12:06;;;;;;;416.25;263.42;;;9.40;99.90;;;9.57;100.00;100923.50;4930055;28;20234;-78
2023/03/20 05:14:33;;;;;;;415.92;258.38;;;9.50;99.90;;;9.61;100.00;100928.88;4929135;28;20241;-80
2023/03/20 05:17:00;;;;;;;409.33;251.95;;;9.50;99.90;;;9.63;100.00;100934.19;4928414;28;20258;-78
2023/03/20 05:19:27;;;;;;;400.40;248.60;;;9.50;99.90;;;9.61;100.00;100931.53;4929971;28;20288;-78
2023/03/20 05:21:55;;;;;;;405.33;251.65;;;9.50;99.90;;;9.62;100.00;100942.97;4930163;28;20681;-76
2023/03/20 05:24:22;;;;;;;406.58;254.18;;;9.50;99.90;;;9.54;100.00;100932.25;4933153;28;20272;-77
2023/03/20 05:26:49;;;;;;;414.55;268.02;;;9.50;99.90;;;9.47;100.00;100934.72;4928908;28;20349;-76
2023/03/20 05:29:16;;;;;;;405.13;255.30;;;9.40;99.90;;;9.50;100.00;100935.69;4943856;28;20246;-77
2023/03/20 05:31:43;;;;;;;410.52;257.55;;;9.40;99.90;;;9.55;100.00;100938.41;4928993;28;20274;-77
2023/03/20 05:34:10;;;;;;;405.38;253.93;;;9.50;99.90;;;9.45;100.00;100932.06;4946397;28;20321;-77
2023/03/20 05:36:37;;;;;;;402.50;256.30;;;9.40;99.90;;;9.45;100.00;100942.63;4933924;28;20298;-77
2023/03/20 05:39:05;;;;;;;401.90;249.35;;;9.40;99.90;;;9.40;100.00;100932.81;4934145;28;20231;-77
2023/03/20 05:41:32;;;;;;;404.15;257.92;;;9.30;99.90;;;9.51;100.00;100932.19;4931872;28;20262;-78
2023/03/20 05:43:59;;;;;;;404.48;252.98;;;9.30;99.90;;;9.56;100.00;100927.00;4936663;28;20293;-77
2023/03/20 05:46:26;;;;;;;399.88;257.38;;;9.50;99.90;;;9.61;100.00;100934.16;4934080;28;20261;-77
2023/03/20 05:48:54;;;;;;;420.90;273.25;;;9.50;99.90;;;9.61;100.00;100933.28;4934765;28;20293;-77
2023/03/20 05:51:21;;;;;;;399.90;251.50;;;9.50;99.90;;;9.59;100.00;100942.91;4933961;28;20241;-78
2023/03/20 05:53:48;;;;;;;409.85;263.13;;;9.50;99.90;;;9.50;100.00;100938.31;4961846;28;20325;-77
2023/03/20 05:56:15;;;;;;;399.33;261.35;;;9.50;99.90;;;9.38;100.00;100935.41;4932311;28;20292;-75
2023/03/20 05:58:42;;;;;;;409.02;257.98;;;9.30;99.90;;;9.29;100.00;100936.13;4932343;28;20297;-77
2023/03/20 06:01:09;;;;;;;410.15;258.88;;;9.30;99.90;;;9.26;100.00;100945.72;4936270;28;20262;-78
2023/03/20 06:03:36;;;;;;;409.27;263.30;;;9.20;99.90;;;9.25;100.00;100959.75;4936779;28;20615;-77
2023/03/20 06:06:04;;;;;;;418.00;260.88;;;9.10;99.90;;;9.23;100.00;100959.72;4938113;28;20286;-78
2023/03/20 06:08:31;;;;;;;424.25;277.75;;;9.10;99.90;;;9.26;100.00;100964.19;4933316;28;20238;-79
2023/03/20 06:10:58;;;;;;;404.92;255.68;;;9.10;99.90;;;9.24;100.00;100964.16;4937510;28;20297;-79
2023/03/20 06:13:25;;;;;;;404.90;262.95;;;9.20;99.90;;;9.27;100.00;100960.69;4937040;28;20241;-79
2023/03/20 06:15:52;;;;;;;406.70;259.25;;;9.20;99.90;;;9.30;100.00;100960.75;4935250;28;20238;-79
2023/03/20 06:18:20;;;;;;;405.70;254.57;;;7.70;99.90;;;9.34;100.00;100970.53;4935043;28;20233;-79
2023/03/20 06:20:55;;;;;;;403.70;251.95;;;9.20;99.90;;;9.33;100.00;100974.03;4933902;28;20294;-78
2023/03/20 06:23:23;;;;;;;404.42;253.68;;;9.30;99.90;;;9.37;100.00;100964.44;4935379;28;20233;-80
2023/03/20 06:25:50;;;;;;;400.50;250.20;;;9.20;99.90;;;9.37;100.00;100969.72;4934973;28;20241;-81
2023/03/20 06:28:18;;;;;;;409.83;252.73;;;9.30;99.90;;;9.40;100.00;100975.06;4933739;28;20966;-80
2023/03/20 06:30:46;;;;;;;397.60;245.48;;;9.30;99.90;;;9.39;100.00;100974.16;4933631;28;20231;-80
2023/03/20 06:33:13;;;;;;;403.48;245.48;;;9.30;99.90;;;9.42;100.00;100974.22;4937608;28;20258;-80
2023/03/20 06:35:40;;;;;;;414.50;259.90;;;9.30;99.90;;;9.43;100.00;100983.03;4936313;28;20242;-80
2023/03/20 06:38:07;;;;;;;407.20;257.98;;;10.20;99.90;;;9.45;100.00;100987.50;4935103;28;20238;-80
2023/03/20 06:40:35;;;;;;;410.40;262.73;;;9.40;99.90;;;9.46;100.00;100985.75;4937874;28;20651;-80
2023/03/20 06:43:02;;;;;;;408.05;255.80;;;9.40;99.90;;;9.43;100.00;100990.97;4936409;28;20231;-78
2023/03/20 06:45:29;;;;;;;409.90;257.60;;;9.40;99.90;;;9.44;100.00;100991.00;4936084;28;20234;-80
2023/03/20 06:47:56;;;;;;;408.33;254.48;;;9.30;99.90;;;9.46;100.00;100996.31;4936758;28;20304;-79
2023/03/20 06:50:23;;;;;;;400.80;255.43;;;9.40;99.90;;;9.49;100.00;101001.66;4938687;28;20246;-80
2023/03/20 06:52:51;;;;;;;401.52;255.68;;;8.10;99.90;;;9.53;100.00;101009.69;4939088;28;20238;-80
2023/03/20 06:55:18;;;;;;;407.70;255.43;;;9.40;99.90;;;9.57;100.00;101014.16;4937364;28;20230;-80
2023/03/20 06:57:45;;;;;;;412.38;260.35;;;9.50;99.90;;;9.65;100.00;101006.41;4934277;28;20265;-79
2023/03/20 07:00:13;;;;;;;399.30;252.85;;;9.50;99.90;;;9.70;100.00;100991.56;4937568;28;20265;-80
2023/03/20 07:02:40;;;;;;;411.05;262.05;;;9.60;99.90;;;9.71;100.00;100996.00;4935447;28;20293;-80
2023/03/20 07:05:09;;;;;;;401.85;254.82;;;9.60;99.90;;;9.74;100.00;100995.16;4937396;28;20234;-81
2023/03/20 07:07:36;;;;;;;413.92;263.80;;;9.70;99.90;;;9.71;100.00;100998.63;4935622;28;20261;-79
2023/03/20 07:10:04;;;;;;;407.85;263.00;;;9.60;99.90;;;9.71;100.00;100990.69;4935799;28;20695;-80
2023/03/20 07:12:31;;;;;;;410.80;267.40;;;9.60;99.90;;;9.75;100.00;100981.09;4936608;28;20258;-79
2023/03/20 07:14:58;;;;;;;411.45;261.58;;;9.60;99.90;;;9.84;100.00;100981.28;4949198;28;20262;-80
2023/03/20 07:17:25;;;;;;;420.00;274.45;;;9.70;99.90;;;9.94;100.00;100985.91;4935157;28;20233;-80
2023/03/20 07:19:52;;;;;;;404.45;256.52;;;9.80;99.90;;;10.02;100.00;101001.91;4935777;28;20246;-79
2023/03/20 07:22:24;;;;;;;409.77;268.27;;;9.90;99.90;;;10.11;100.00;100999.44;4936178;28;20231;-78
2023/03/20 07:24:52;;;;;;;410.48;271.30;;;10.00;99.90;;;10.29;100.00;101006.88;4933666;28;20230;-79
2023/03/20 07:27:20;;;;;;;408.15;274.08;;;10.10;99.90;;;10.41;100.00;101004.50;4933961;28;20270;-80
2023/03/20 07:29:47;;;;;;;413.33;281.30;;;10.30;99.90;;;10.50;100.00;101000.28;4933591;28;20234;-79
2023/03/20 07:32:15;;;;;;;416.55;290.50;;;10.30;99.90;;;10.56;100.00;100994.19;4938102;28;20269;-79
2023/03/20 07:34:43;;;;;;;437.45;303.13;;;10.50;99.90;;;10.56;100.00;100984.50;4934184;28;20250;-80
2023/03/20 07:37:10;;;;;;;418.20;288.25;;;10.40;99.90;;;10.57;100.00;100972.19;4939178;28;20234;-80
2023/03/20 07:39:37;;;;;;;418.23;290.25;;;10.50;99.90;;;10.51;100.00;100965.03;4935514;28;20226;-81
2023/03/20 07:42:05;;;;;;;413.48;290.95;;;10.40;99.90;;;10.41;100.00;100959.56;4938361;28;20407;-82
2023/03/20 07:44:32;;;;;;;421.98;297.05;;;10.30;99.90;;;10.40;100.00;100957.72;4940771;28;20239;-80
2023/03/20 07:46:59;;;;;;;420.52;307.85;;;10.30;99.90;;;10.40;100.00;100955.09;4940010;28;20293;-80
2023/03/20 07:49:26;;;;;;;418.25;302.63;;;10.30;99.90;;;10.45;100.00;100957.00;4939697;28;20236;-81
2023/03/20 07:51:53;;;;;;;421.45;306.35;;;10.30;99.90;;;10.47;100.00;100957.91;4933885;28;20269;-80
2023/03/20 07:54:21;;;;;;;433.23;313.33;;;10.30;99.90;;;10.46;100.00;100950.84;4931716;28;20246;-79
2023/03/20 07:56:49;;;;;;;437.60;329.98;;;10.40;99.90;;;10.42;100.00;100959.56;4935528;28;20254;-79
2023/03/20 07:59:17;;;;;;;436.25;323.55;;;10.40;99.90;;;10.46;100.00;100973.75;4930403;28;20261;-80
2023/03/20 08:01:44;;;;;;;429.88;321.55;;;10.40;99.90;;;10.47;100.00;100967.59;4931706;28;20275;-80
2023/03/20 08:04:12;;;;;;;439.92;326.45;;;10.40;99.90;;;10.43;100.00;100960.47;4933751;28;20238;-79
2023/03/20 08:06:39;;;;;;;425.90;317.73;;;10.30;99.90;;;10.40;100.00;100966.59;4934496;28;20242;-86
2023/03/20 08:09:06;;;;;;;433.08;325.95;;;10.30;99.90;;;10.40;100.00;100965.66;4933312;28;20293;-79
2023/03/20 08:11:33;;;;;;;424.95;318.15;;;10.30;99.90;;;10.37;100.00;100968.25;4937149;28;20260;-79
2023/03/20 08:14:00;;;;;;;420.88;314.48;;;10.30;99.90;;;10.34;100.00;100963.81;4936604;28;20248;-79
2023/03/20 08:16:27;;;;;;;422.83;318.65;;;10.30;99.90;;;10.38;100.00;100960.34;4966500;28;20222;-79
2023/03/20 08:18:59;;;;;;;432.17;331.45;;;10.30;99.90;;;10.31;100.00;100952.28;4935532;28;20238;-79
2023/03/20 08:21:31;;;;;;;426.48;327.10;;;10.20;99.90;;;10.35;100.00;100956.75;4938240;28;20241;-81
2023/03/20 08:23:58;;;;;;;426.92;325.05;;;10.30;99.90;;;10.34;100.00;100955.88;4934240;28;20250;-79
2023/03/20 08:26:25;;;;;;;425.27;325.90;;;10.30;99.90;;;10.35;100.00;100956.75;4935259;28;20238;-79
2023/03/20 08:28:52;;;;;;;424.63;320.80;;;10.30;99.90;;;10.36;100.00;100958.53;4937163;28;20238;-79
2023/03/20 08:31:19;;;;;;;426.52;323.48;;;10.30;99.90;;;10.31;100.00;100949.63;4936237;28;20230;-79
2023/03/20 08:33:47;;;;;;;431.63;325.65;;;10.30;99.90;;;10.36;100.00;100951.50;4933804;28;20998;-80
2023/03/20 08:36:18;;;;;;;426.27;323.33;;;10.20;99.90;;;10.45;100.00;100957.00;4934954;28;20230;-79
2023/03/20 08:38:48;;;;;;;426.77;317.27;;;10.40;99.90;;;10.52;100.00;100956.22;4936430;28;20238;-79
2023/03/20 08:41:16;;;;;;;412.58;309.35;;;10.40;99.90;;;10.60;100.00;100942.25;4938219;28;20231;-80
2023/03/20 08:43:43;;;;;;;424.52;319.30;;;10.50;99.90;;;10.66;100.00;100937.06;4939760;28;20230;-80
2023/03/20 08:46:11;;;;;;;422.75;318.63;;;10.60;99.90;;;10.74;100.00;100927.50;4932156;28;20286;-78
2023/03/20 08:48:38;;;;;;;421.13;321.50;;;10.60;99.90;;;10.75;100.00;100932.81;4932155;28;20261;-78
2023/03/20 08:51:06;;;;;;;417.45;320.17;;;10.60;99.90;;;10.68;100.00;100916.81;4934864;28;20246;-78
2023/03/20 08:53:33;;;;;;;421.00;319.80;;;10.60;99.90;;;10.66;100.00;100916.78;4934392;28;20298;-78
2023/03/20 08:56:00;;;;;;;424.65;324.98;;;10.60;99.90;;;10.70;100.00;100913.34;4916036;29;20254;-78
2023/03/20 08:58:28;;;;;;;419.17;315.40;;;10.60;99.90;;;10.77;100.00;100931.09;4935598;28;20234;-78
2023/03/20 09:00:55;;;;;;;414.83;312.95;;;10.70;99.90;;;10.77;100.00;100931.09;4935188;28;20242;-78
2023/03/20 09:03:23;;;;;;;417.60;316.17;;;10.70;99.90;;;10.77;100.00;100919.59;4949856;28;20315;-78
2023/03/20 09:05:51;;;;;;;434.95;331.83;;;10.70;99.90;;;10.84;100.00;100924.13;4933218;28;20282;-78
2023/03/20 09:08:18;;;;;;;423.58;328.48;;;10.70;99.90;;;10.93;100.00;100926.91;4933590;28;20238;-79
2023/03/20 09:10:47;;;;;;;422.52;325.52;;;10.90;99.90;;;10.99;100.00;100916.44;4933669;28;20313;-81
2023/03/20 09:13:18;;;;;;;421.70;320.13;;;10.80;99.90;;;11.04;100.00;100920.03;4936192;28;20258;-79
2023/03/20 09:15:55;;;;;;;421.35;324.45;;;10.90;99.90;;;10.96;100.00;100913.72;4932677;28;20244;-78
2023/03/20 09:18:23;;;;;;;419.00;329.02;;;10.90;99.90;;;10.97;100.00;100923.44;4935115;28;20354;-79
2023/03/20 09:20:50;;;;;;;420.58;329.92;;;10.80;99.90;;;10.84;100.00;100942.66;4934487;28;20277;-81
2023/03/20 09:23:18;;;;;;;420.25;330.80;;;10.80;99.90;;;10.69;100.00;100950.34;4937845;28;20226;-78
2023/03/20 09:25:46;;;;;;;426.73;334.25;;;10.70;99.90;;;10.86;100.00;100975.31;4935552;28;20242;-78
2023/03/20 09:28:14;;;;;;;428.13;337.52;;;10.70;99.90;;;10.87;100.00;100988.56;4937861;28;20230;-78
2023/03/20 09:30:42;;;;;;;427.38;338.30;;;10.80;99.90;;;10.94;100.00;100972.78;4935666;28;20234;-77
2023/03/20 09:33:10;;;;;;;419.02;330.80;;;10.80;99.90;;;10.72;100.00;100958.31;4940215;28;20237;-78
2023/03/20 09:35:37;;;;;;;414.10;330.70;;;10.70;99.90;;;10.76;100.00;100973.38;4937111;28;20269;-78
2023/03/20 09:38:05;;;;;;;416.83;327.33;;;10.70;99.90;;;10.70;100.00;100975.94;4936378;28;20317;-79
2023/03/20 09:40:58;;;;;;;417.40;326.52;;;10.60;99.90;;;10.67;100.00;100981.16;4935986;28;20234;-81
2023/03/20 09:44:14;;;;;;;418.23;323.80;;;10.60;99.90;;;10.71;100.00;100986.53;4934409;28;20222;-78
2023/03/20 09:46:50;;;;;;;423.55;328.05;;;10.70;99.90;;;10.80;100.00;100984.03;4946664;28;20249;-79
2023/03/20 09:50:11;;;;;;;424.92;327.73;;;10.70;99.90;;;10.86;100.00;100988.53;4950487;28;20321;-79
2023/03/20 09:53:12;;;;;;;415.30;319.48;;;10.90;99.90;;;11.11;100.00;101001.31;4940261;28;20242;-78
2023/03/20 09:55:41;;;;;;;426.63;327.05;;;10.90;99.90;;;11.00;100.00;100994.97;4936440;28;20246;-78
2023/03/20 09:58:20;;;;;;;417.50;329.30;;;10.90;99.90;;;11.18;100.00;100995.25;4936924;28;20252;-77
2023/03/20 10:00:48;;;;;;;429.17;338.70;;;11.00;99.90;;;11.40;100.00;100964.69;4951478;28;20241;-78
2023/03/20 10:03:28;;;;;;;427.33;337.02;;;11.20;99.90;;;11.55;100.00;100938.41;4937512;28;20238;-78
2023/03/20 10:06:03;;;;;;;429.60;344.33;;;11.40;99.90;;;11.55;98.81;100905.72;4948258;28;20242;-78
2023/03/20 10:08:36;;;;;;;427.38;348.85;;;11.40;99.90;;;11.54;94.92;100867.75;4937555;28;20241;-78
2023/03/20 10:11:55;;;;;;;421.30;347.17;;;11.40;99.90;;;11.79;92.88;100844.25;4938076;28;20242;-78
2023/03/20 10:15:22;;;;;;;432.02;351.90;;;11.60;99.90;;;12.25;90.52;100842.91;4954288;28;20289;-78
2023/03/20 10:18:01;;;;;;;429.27;350.58;;;12.00;99.90;;;12.28;87.94;100784.59;4934353;28;20289;-78